sensor_id;sensor_type;location;lat;lon;timestamp;P1;durP1;ratioP1;P2;durP2;ratioP2
40959;SDS011;27842;52.272;8.052;2023-12-07T00:02:18;28.10;;;17.20;;
40959;SDS011;27842;52.272;8.052;2023-12-07T00:04:43;28.63;;;17.63;;
40959;SDS011;27842;52.272;8.052;2023-12-07T00:07:09;30.63;;;17.53;;
40959;SDS011;27842;52.272;8.052;2023-12-07T00:09:35;34.90;;;20.30;;
40959;SDS011;27842;52.272;8.052;2023-12-07T00:12:00;34.53;;;19.67;;
40959;SDS011;27842;52.272;8.052;2023-12-07T00:14:26;32.47;;;18.03;;
40959;SDS011;27842;52.272;8.052;2023-12-07T00:16:51;29.90;;;17.20;;
40959;SDS011;27842;52.272;8.052;2023-12-07T00:19:17;29.83;;;17.20;;
40959;SDS011;27842;52.272;8.052;2023-12-07T00:21:42;30.10;;;18.20;;
40959;SDS011;27842;52.272;8.052;2023-12-07T00:24:08;30.50;;;17.47;;
40959;SDS011;27842;52.272;8.052;2023-12-07T00:26:33;30.63;;;17.00;;
40959;SDS011;27842;52.272;8.052;2023-12-07T00:28:59;28.97;;;16.73;;
40959;SDS011;27842;52.272;8.052;2023-12-07T00:31:24;28.57;;;17.43;;
40959;SDS011;27842;52.272;8.052;2023-12-07T00:33:51;31.17;;;17.43;;
40959;SDS011;27842;52.272;8.052;2023-12-07T00:36:16;29.23;;;17.97;;
40959;SDS011;27842;52.272;8.052;2023-12-07T00:38:42;29.23;;;16.53;;
40959;SDS011;27842;52.272;8.052;2023-12-07T00:41:07;28.77;;;16.97;;
40959;SDS011;27842;52.272;8.052;2023-12-07T00:43:33;30.90;;;17.30;;
40959;SDS011;27842;52.272;8.052;2023-12-07T00:45:59;30.47;;;18.17;;
40959;SDS011;27842;52.272;8.052;2023-12-07T00:48:25;29.93;;;17.57;;
40959;SDS011;27842;52.272;8.052;2023-12-07T00:50:50;29.00;;;17.00;;
40959;SDS011;27842;52.272;8.052;2023-12-07T00:53:16;29.47;;;17.17;;
40959;SDS011;27842;52.272;8.052;2023-12-07T00:55:42;30.77;;;17.97;;
40959;SDS011;27842;52.272;8.052;2023-12-07T00:58:07;31.27;;;18.10;;
40959;SDS011;27842;52.272;8.052;2023-12-07T01:00:33;30.73;;;17.33;;
40959;SDS011;27842;52.272;8.052;2023-12-07T01:02:58;30.67;;;18.60;;
40959;SDS011;27842;52.272;8.052;2023-12-07T01:05:24;32.40;;;18.43;;
40959;SDS011;27842;52.272;8.052;2023-12-07T01:07:50;31.50;;;18.50;;
40959;SDS011;27842;52.272;8.052;2023-12-07T01:10:16;30.70;;;18.97;;
40959;SDS011;27842;52.272;8.052;2023-12-07T01:12:41;28.77;;;17.30;;
40959;SDS011;27842;52.272;8.052;2023-12-07T01:15:07;30.97;;;16.70;;
40959;SDS011;27842;52.272;8.052;2023-12-07T01:17:33;28.53;;;16.90;;
40959;SDS011;27842;52.272;8.052;2023-12-07T01:19:58;29.83;;;17.23;;
40959;SDS011;27842;52.272;8.052;2023-12-07T01:22:24;28.90;;;17.07;;
40959;SDS011;27842;52.272;8.052;2023-12-07T01:24:50;27.93;;;16.73;;
40959;SDS011;27842;52.272;8.052;2023-12-07T01:27:16;29.33;;;16.80;;
40959;SDS011;27842;52.272;8.052;2023-12-07T01:29:41;29.93;;;16.53;;
40959;SDS011;27842;52.272;8.052;2023-12-07T01:32:07;29.97;;;16.67;;
40959;SDS011;27842;52.272;8.052;2023-12-07T01:34:32;26.20;;;16.13;;
40959;SDS011;27842;52.272;8.052;2023-12-07T01:36:58;28.20;;;15.60;;
40959;SDS011;27842;52.272;8.052;2023-12-07T01:39:23;28.37;;;15.87;;
40959;SDS011;27842;52.272;8.052;2023-12-07T01:41:49;28.60;;;15.33;;
40959;SDS011;27842;52.272;8.052;2023-12-07T01:44:16;27.90;;;16.27;;
40959;SDS011;27842;52.272;8.052;2023-12-07T01:46:42;28.80;;;15.53;;
40959;SDS011;27842;52.272;8.052;2023-12-07T01:49:08;27.47;;;15.33;;
40959;SDS011;27842;52.272;8.052;2023-12-07T01:51:34;28.27;;;16.87;;
40959;SDS011;27842;52.272;8.052;2023-12-07T01:54:00;26.77;;;15.60;;
40959;SDS011;27842;52.272;8.052;2023-12-07T01:56:26;26.80;;;15.57;;
40959;SDS011;27842;52.272;8.052;2023-12-07T01:58:52;27.87;;;15.33;;
40959;SDS011;27842;52.272;8.052;2023-12-07T02:01:18;26.87;;;15.50;;
40959;SDS011;27842;52.272;8.052;2023-12-07T02:03:44;25.80;;;15.67;;
40959;SDS011;27842;52.272;8.052;2023-12-07T02:06:09;26.30;;;15.53;;
40959;SDS011;27842;52.272;8.052;2023-12-07T02:08:35;29.13;;;15.60;;
40959;SDS011;27842;52.272;8.052;2023-12-07T02:11:06;26.27;;;16.07;;
40959;SDS011;27842;52.272;8.052;2023-12-07T02:13:37;27.02;;;15.80;;
40959;SDS011;27842;52.272;8.052;2023-12-07T02:18:42;28.93;;;15.97;;
40959;SDS011;27842;52.272;8.052;2023-12-07T02:21:22;26.17;;;14.93;;
40959;SDS011;27842;52.272;8.052;2023-12-07T02:23:55;28.83;;;15.70;;
40959;SDS011;27842;52.272;8.052;2023-12-07T02:26:22;25.57;;;14.90;;
40959;SDS011;27842;52.272;8.052;2023-12-07T02:28:56;29.37;;;15.23;;
40959;SDS011;27842;52.272;8.052;2023-12-07T02:31:22;26.13;;;14.47;;
40959;SDS011;27842;52.272;8.052;2023-12-07T02:33:48;25.80;;;13.67;;
40959;SDS011;27842;52.272;8.052;2023-12-07T02:36:14;25.43;;;14.83;;
40959;SDS011;27842;52.272;8.052;2023-12-07T02:38:42;25.43;;;14.00;;
40959;SDS011;27842;52.272;8.052;2023-12-07T02:41:09;27.43;;;15.40;;
40959;SDS011;27842;52.272;8.052;2023-12-07T02:43:36;26.83;;;14.57;;
40959;SDS011;27842;52.272;8.052;2023-12-07T02:46:02;25.27;;;14.20;;
40959;SDS011;27842;52.272;8.052;2023-12-07T02:48:28;26.47;;;14.33;;
40959;SDS011;27842;52.272;8.052;2023-12-07T02:50:54;24.43;;;14.53;;
40959;SDS011;27842;52.272;8.052;2023-12-07T02:53:20;26.30;;;15.40;;
40959;SDS011;27842;52.272;8.052;2023-12-07T02:55:45;24.70;;;14.33;;
40959;SDS011;27842;52.272;8.052;2023-12-07T02:58:11;23.97;;;13.53;;
40959;SDS011;27842;52.272;8.052;2023-12-07T03:00:37;24.10;;;13.37;;
40959;SDS011;27842;52.272;8.052;2023-12-07T03:03:02;23.90;;;13.33;;
40959;SDS011;27842;52.272;8.052;2023-12-07T03:05:28;27.00;;;13.90;;
40959;SDS011;27842;52.272;8.052;2023-12-07T03:07:53;25.90;;;13.50;;
40959;SDS011;27842;52.272;8.052;2023-12-07T03:10:19;22.97;;;13.03;;
40959;SDS011;27842;52.272;8.052;2023-12-07T03:12:44;26.20;;;14.37;;
40959;SDS011;27842;52.272;8.052;2023-12-07T03:15:10;24.27;;;14.13;;
40959;SDS011;27842;52.272;8.052;2023-12-07T03:17:37;26.87;;;14.17;;
40959;SDS011;27842;52.272;8.052;2023-12-07T03:20:03;24.57;;;13.83;;
40959;SDS011;27842;52.272;8.052;2023-12-07T03:22:30;24.10;;;13.60;;
40959;SDS011;27842;52.272;8.052;2023-12-07T03:24:56;24.17;;;14.20;;
40959;SDS011;27842;52.272;8.052;2023-12-07T03:27:21;25.53;;;13.37;;
40959;SDS011;27842;52.272;8.052;2023-12-07T03:29:47;24.37;;;13.90;;
40959;SDS011;27842;52.272;8.052;2023-12-07T03:32:12;25.10;;;13.47;;
40959;SDS011;27842;52.272;8.052;2023-12-07T03:34:38;23.03;;;12.60;;
40959;SDS011;27842;52.272;8.052;2023-12-07T03:37:03;23.13;;;13.33;;
40959;SDS011;27842;52.272;8.052;2023-12-07T03:39:29;24.70;;;13.80;;
40959;SDS011;27842;52.272;8.052;2023-12-07T03:41:57;25.13;;;14.10;;
40959;SDS011;27842;52.272;8.052;2023-12-07T03:44:22;22.73;;;12.83;;
40959;SDS011;27842;52.272;8.052;2023-12-07T03:46:48;24.13;;;14.07;;
40959;SDS011;27842;52.272;8.052;2023-12-07T03:49:13;25.70;;;12.97;;
40959;SDS011;27842;52.272;8.052;2023-12-07T03:51:39;25.43;;;13.63;;
40959;SDS011;27842;52.272;8.052;2023-12-07T03:54:05;23.90;;;12.90;;
40959;SDS011;27842;52.272;8.052;2023-12-07T03:56:33;22.87;;;12.70;;
40959;SDS011;27842;52.272;8.052;2023-12-07T03:58:59;23.90;;;13.97;;
40959;SDS011;27842;52.272;8.052;2023-12-07T04:01:25;25.57;;;13.37;;
40959;SDS011;27842;52.272;8.052;2023-12-07T04:03:53;24.53;;;13.60;;
40959;SDS011;27842;52.272;8.052;2023-12-07T04:06:19;25.90;;;14.33;;
40959;SDS011;27842;52.272;8.052;2023-12-07T04:08:45;26.77;;;13.93;;
40959;SDS011;27842;52.272;8.052;2023-12-07T04:11:11;25.20;;;13.97;;
40959;SDS011;27842;52.272;8.052;2023-12-07T04:13:37;26.50;;;14.83;;
40959;SDS011;27842;52.272;8.052;2023-12-07T04:16:03;24.40;;;13.93;;
40959;SDS011;27842;52.272;8.052;2023-12-07T04:18:29;25.43;;;13.97;;
40959;SDS011;27842;52.272;8.052;2023-12-07T04:20:54;25.83;;;14.23;;
40959;SDS011;27842;52.272;8.052;2023-12-07T04:23:20;25.50;;;14.17;;
40959;SDS011;27842;52.272;8.052;2023-12-07T04:25:46;25.70;;;14.70;;
40959;SDS011;27842;52.272;8.052;2023-12-07T04:28:11;25.47;;;14.43;;
40959;SDS011;27842;52.272;8.052;2023-12-07T04:30:37;23.87;;;13.47;;
40959;SDS011;27842;52.272;8.052;2023-12-07T04:33:03;24.90;;;13.80;;
40959;SDS011;27842;52.272;8.052;2023-12-07T04:35:30;26.77;;;14.30;;
40959;SDS011;27842;52.272;8.052;2023-12-07T04:37:55;23.87;;;13.43;;
40959;SDS011;27842;52.272;8.052;2023-12-07T04:40:21;25.77;;;14.13;;
40959;SDS011;27842;52.272;8.052;2023-12-07T04:42:47;27.83;;;15.07;;
40959;SDS011;27842;52.272;8.052;2023-12-07T04:45:12;24.10;;;13.97;;
40959;SDS011;27842;52.272;8.052;2023-12-07T04:47:38;27.60;;;14.90;;
40959;SDS011;27842;52.272;8.052;2023-12-07T04:50:04;24.73;;;14.27;;
40959;SDS011;27842;52.272;8.052;2023-12-07T04:52:30;25.87;;;14.37;;
40959;SDS011;27842;52.272;8.052;2023-12-07T04:54:55;27.83;;;15.17;;
40959;SDS011;27842;52.272;8.052;2023-12-07T04:57:21;29.20;;;15.27;;
40959;SDS011;27842;52.272;8.052;2023-12-07T04:59:46;25.77;;;14.60;;
40959;SDS011;27842;52.272;8.052;2023-12-07T05:02:15;27.67;;;14.53;;
40959;SDS011;27842;52.272;8.052;2023-12-07T05:07:07;25.63;;;13.07;;
40959;SDS011;27842;52.272;8.052;2023-12-07T05:09:33;26.70;;;14.70;;
40959;SDS011;27842;52.272;8.052;2023-12-07T05:11:59;28.03;;;13.97;;
40959;SDS011;27842;52.272;8.052;2023-12-07T05:14:24;28.67;;;15.03;;
40959;SDS011;27842;52.272;8.052;2023-12-07T05:16:50;29.33;;;15.20;;
40959;SDS011;27842;52.272;8.052;2023-12-07T05:19:20;27.93;;;15.13;;
40959;SDS011;27842;52.272;8.052;2023-12-07T05:21:47;28.83;;;15.73;;
40959;SDS011;27842;52.272;8.052;2023-12-07T05:24:12;28.03;;;15.00;;
40959;SDS011;27842;52.272;8.052;2023-12-07T05:26:40;27.60;;;15.70;;
40959;SDS011;27842;52.272;8.052;2023-12-07T05:29:06;29.00;;;15.30;;
40959;SDS011;27842;52.272;8.052;2023-12-07T05:31:32;29.53;;;15.90;;
40959;SDS011;27842;52.272;8.052;2023-12-07T05:33:57;28.50;;;15.77;;
40959;SDS011;27842;52.272;8.052;2023-12-07T05:36:23;29.50;;;16.00;;
40959;SDS011;27842;52.272;8.052;2023-12-07T05:38:49;28.93;;;15.93;;
40959;SDS011;27842;52.272;8.052;2023-12-07T05:41:14;29.03;;;15.83;;
40959;SDS011;27842;52.272;8.052;2023-12-07T05:43:40;29.60;;;16.23;;
40959;SDS011;27842;52.272;8.052;2023-12-07T05:46:07;29.57;;;16.00;;
40959;SDS011;27842;52.272;8.052;2023-12-07T05:48:32;31.07;;;16.43;;
40959;SDS011;27842;52.272;8.052;2023-12-07T05:50:58;30.33;;;16.07;;
40959;SDS011;27842;52.272;8.052;2023-12-07T05:53:24;29.43;;;16.53;;
40959;SDS011;27842;52.272;8.052;2023-12-07T05:55:50;28.00;;;15.47;;
40959;SDS011;27842;52.272;8.052;2023-12-07T05:58:15;29.27;;;16.77;;
40959;SDS011;27842;52.272;8.052;2023-12-07T06:00:43;28.87;;;16.43;;
40959;SDS011;27842;52.272;8.052;2023-12-07T06:03:09;28.87;;;18.23;;
40959;SDS011;27842;52.272;8.052;2023-12-07T06:05:38;31.10;;;17.30;;
40959;SDS011;27842;52.272;8.052;2023-12-07T06:08:03;31.60;;;17.23;;
40959;SDS011;27842;52.272;8.052;2023-12-07T06:10:29;29.30;;;16.70;;
40959;SDS011;27842;52.272;8.052;2023-12-07T06:12:55;29.37;;;16.77;;
40959;SDS011;27842;52.272;8.052;2023-12-07T06:15:23;32.37;;;17.27;;
40959;SDS011;27842;52.272;8.052;2023-12-07T06:17:49;31.17;;;17.90;;
40959;SDS011;27842;52.272;8.052;2023-12-07T06:20:14;34.57;;;17.97;;
40959;SDS011;27842;52.272;8.052;2023-12-07T06:22:40;30.97;;;18.67;;
40959;SDS011;27842;52.272;8.052;2023-12-07T06:25:06;34.20;;;19.30;;
40959;SDS011;27842;52.272;8.052;2023-12-07T06:27:33;32.83;;;19.67;;
40959;SDS011;27842;52.272;8.052;2023-12-07T06:30:00;32.30;;;18.70;;
40959;SDS011;27842;52.272;8.052;2023-12-07T06:32:25;34.23;;;19.03;;
40959;SDS011;27842;52.272;8.052;2023-12-07T06:34:51;34.03;;;18.70;;
40959;SDS011;27842;52.272;8.052;2023-12-07T06:37:17;32.23;;;19.43;;
40959;SDS011;27842;52.272;8.052;2023-12-07T06:39:42;33.43;;;19.10;;
40959;SDS011;27842;52.272;8.052;2023-12-07T06:42:08;34.60;;;19.87;;
40959;SDS011;27842;52.272;8.052;2023-12-07T06:44:34;35.53;;;19.60;;
40959;SDS011;27842;52.272;8.052;2023-12-07T06:46:59;34.57;;;20.00;;
40959;SDS011;27842;52.272;8.052;2023-12-07T06:49:28;35.07;;;18.93;;
40959;SDS011;27842;52.272;8.052;2023-12-07T06:51:53;35.00;;;19.53;;
40959;SDS011;27842;52.272;8.052;2023-12-07T06:54:19;34.13;;;19.47;;
40959;SDS011;27842;52.272;8.052;2023-12-07T06:56:45;35.13;;;20.10;;
40959;SDS011;27842;52.272;8.052;2023-12-07T06:59:11;34.53;;;20.27;;
40959;SDS011;27842;52.272;8.052;2023-12-07T07:01:37;36.30;;;20.23;;
40959;SDS011;27842;52.272;8.052;2023-12-07T07:04:03;36.67;;;19.77;;
40959;SDS011;27842;52.272;8.052;2023-12-07T07:06:29;35.97;;;20.00;;
40959;SDS011;27842;52.272;8.052;2023-12-07T07:08:54;34.20;;;20.03;;
40959;SDS011;27842;52.272;8.052;2023-12-07T07:11:20;37.13;;;20.57;;
40959;SDS011;27842;52.272;8.052;2023-12-07T07:13:46;35.60;;;20.40;;
40959;SDS011;27842;52.272;8.052;2023-12-07T07:16:11;34.70;;;20.60;;
40959;SDS011;27842;52.272;8.052;2023-12-07T07:18:37;35.20;;;19.37;;
40959;SDS011;27842;52.272;8.052;2023-12-07T07:21:04;36.37;;;20.17;;
40959;SDS011;27842;52.272;8.052;2023-12-07T07:23:30;34.30;;;19.33;;
40959;SDS011;27842;52.272;8.052;2023-12-07T07:25:55;32.80;;;19.57;;
40959;SDS011;27842;52.272;8.052;2023-12-07T07:28:21;34.10;;;18.73;;
40959;SDS011;27842;52.272;8.052;2023-12-07T07:30:47;31.40;;;18.73;;
40959;SDS011;27842;52.272;8.052;2023-12-07T07:33:13;31.50;;;19.00;;
40959;SDS011;27842;52.272;8.052;2023-12-07T07:35:38;31.03;;;17.87;;
40959;SDS011;27842;52.272;8.052;2023-12-07T07:38:04;32.10;;;18.30;;
40959;SDS011;27842;52.272;8.052;2023-12-07T07:40:29;31.37;;;18.87;;
40959;SDS011;27842;52.272;8.052;2023-12-07T07:42:55;32.57;;;18.87;;
40959;SDS011;27842;52.272;8.052;2023-12-07T07:45:21;32.43;;;18.10;;
40959;SDS011;27842;52.272;8.052;2023-12-07T07:47:46;29.43;;;17.43;;
40959;SDS011;27842;52.272;8.052;2023-12-07T07:50:12;32.40;;;18.33;;
40959;SDS011;27842;52.272;8.052;2023-12-07T07:52:37;29.83;;;17.47;;
40959;SDS011;27842;52.272;8.052;2023-12-07T07:55:05;29.80;;;16.77;;
40959;SDS011;27842;52.272;8.052;2023-12-07T07:57:31;30.23;;;17.67;;
40959;SDS011;27842;52.272;8.052;2023-12-07T07:59:57;33.57;;;18.00;;
40959;SDS011;27842;52.272;8.052;2023-12-07T08:02:23;32.07;;;17.77;;
40959;SDS011;27842;52.272;8.052;2023-12-07T08:04:49;30.33;;;17.67;;
40959;SDS011;27842;52.272;8.052;2023-12-07T08:07:16;30.03;;;17.43;;
40959;SDS011;27842;52.272;8.052;2023-12-07T08:09:45;28.90;;;17.05;;
40959;SDS011;27842;52.272;8.052;2023-12-07T08:12:10;29.63;;;17.73;;
40959;SDS011;27842;52.272;8.052;2023-12-07T08:14:36;28.63;;;16.53;;
40959;SDS011;27842;52.272;8.052;2023-12-07T08:17:02;28.50;;;17.47;;
40959;SDS011;27842;52.272;8.052;2023-12-07T08:19:29;28.47;;;16.23;;
40959;SDS011;27842;52.272;8.052;2023-12-07T08:21:55;27.90;;;16.73;;
40959;SDS011;27842;52.272;8.052;2023-12-07T08:24:27;29.27;;;16.83;;
40959;SDS011;27842;52.272;8.052;2023-12-07T08:26:58;28.83;;;16.20;;
40959;SDS011;27842;52.272;8.052;2023-12-07T08:29:24;29.47;;;16.83;;
40959;SDS011;27842;52.272;8.052;2023-12-07T08:31:50;30.17;;;16.53;;
40959;SDS011;27842;52.272;8.052;2023-12-07T08:34:16;26.87;;;15.33;;
40959;SDS011;27842;52.272;8.052;2023-12-07T08:36:42;27.67;;;16.07;;
40959;SDS011;27842;52.272;8.052;2023-12-07T08:39:07;27.23;;;16.00;;
40959;SDS011;27842;52.272;8.052;2023-12-07T08:41:36;29.08;;;16.65;;
40959;SDS011;27842;52.272;8.052;2023-12-07T08:44:02;28.03;;;16.60;;
40959;SDS011;27842;52.272;8.052;2023-12-07T08:46:34;31.57;;;16.97;;
40959;SDS011;27842;52.272;8.052;2023-12-07T08:49:01;29.00;;;16.77;;
40959;SDS011;27842;52.272;8.052;2023-12-07T08:51:27;30.77;;;17.33;;
40959;SDS011;27842;52.272;8.052;2023-12-07T08:53:53;30.50;;;17.37;;
40959;SDS011;27842;52.272;8.052;2023-12-07T08:56:20;30.10;;;17.43;;
40959;SDS011;27842;52.272;8.052;2023-12-07T08:58:48;29.90;;;17.23;;
40959;SDS011;27842;52.272;8.052;2023-12-07T09:04:16;30.53;;;17.63;;
40959;SDS011;27842;52.272;8.052;2023-12-07T09:06:42;33.07;;;18.47;;
40959;SDS011;27842;52.272;8.052;2023-12-07T09:09:08;31.07;;;18.17;;
40959;SDS011;27842;52.272;8.052;2023-12-07T09:14:27;33.37;;;18.63;;
40959;SDS011;27842;52.272;8.052;2023-12-07T09:16:53;29.23;;;17.27;;
40959;SDS011;27842;52.272;8.052;2023-12-07T09:19:22;33.20;;;18.55;;
40959;SDS011;27842;52.272;8.052;2023-12-07T09:21:49;29.63;;;16.73;;
40959;SDS011;27842;52.272;8.052;2023-12-07T09:24:15;33.73;;;19.07;;
40959;SDS011;27842;52.272;8.052;2023-12-07T09:26:46;31.53;;;17.33;;
40959;SDS011;27842;52.272;8.052;2023-12-07T09:29:13;31.83;;;16.57;;
40959;SDS011;27842;52.272;8.052;2023-12-07T09:31:41;30.70;;;16.50;;
40959;SDS011;27842;52.272;8.052;2023-12-07T09:34:07;32.20;;;16.75;;
40959;SDS011;27842;52.272;8.052;2023-12-07T09:36:34;31.80;;;17.53;;
40959;SDS011;27842;52.272;8.052;2023-12-07T09:39:00;31.50;;;17.67;;
40959;SDS011;27842;52.272;8.052;2023-12-07T09:49:20;35.47;;;19.00;;
40959;SDS011;27842;52.272;8.052;2023-12-07T09:51:46;32.63;;;18.37;;
40959;SDS011;27842;52.272;8.052;2023-12-07T09:54:12;36.43;;;19.00;;
40959;SDS011;27842;52.272;8.052;2023-12-07T09:56:38;34.40;;;18.07;;
40959;SDS011;27842;52.272;8.052;2023-12-07T09:59:04;36.37;;;19.40;;
40959;SDS011;27842;52.272;8.052;2023-12-07T10:01:32;36.67;;;18.43;;
40959;SDS011;27842;52.272;8.052;2023-12-07T10:06:45;35.17;;;18.63;;
40959;SDS011;27842;52.272;8.052;2023-12-07T10:09:11;33.20;;;17.97;;
40959;SDS011;27842;52.272;8.052;2023-12-07T10:11:37;33.27;;;17.70;;
40959;SDS011;27842;52.272;8.052;2023-12-07T10:14:04;34.27;;;18.50;;
40959;SDS011;27842;52.272;8.052;2023-12-07T10:16:32;32.88;;;16.80;;
40959;SDS011;27842;52.272;8.052;2023-12-07T10:19:21;36.10;;;17.57;;
40959;SDS011;27842;52.272;8.052;2023-12-07T10:24:19;30.77;;;16.63;;
40959;SDS011;27842;52.272;8.052;2023-12-07T10:26:47;33.27;;;16.47;;
40959;SDS011;27842;52.272;8.052;2023-12-07T10:29:18;34.58;;;17.92;;
40959;SDS011;27842;52.272;8.052;2023-12-07T10:34:12;34.50;;;17.17;;
40959;SDS011;27842;52.272;8.052;2023-12-07T10:36:38;33.20;;;17.50;;
40959;SDS011;27842;52.272;8.052;2023-12-07T10:39:04;35.57;;;18.90;;
40959;SDS011;27842;52.272;8.052;2023-12-07T10:41:33;32.00;;;17.48;;
40959;SDS011;27842;52.272;8.052;2023-12-07T10:44:00;35.17;;;17.70;;
40959;SDS011;27842;52.272;8.052;2023-12-07T10:46:29;33.55;;;17.23;;
40959;SDS011;27842;52.272;8.052;2023-12-07T10:49:01;35.40;;;19.27;;
40959;SDS011;27842;52.272;8.052;2023-12-07T10:54:15;36.67;;;19.33;;
40959;SDS011;27842;52.272;8.052;2023-12-07T10:56:45;36.27;;;17.50;;
40959;SDS011;27842;52.272;8.052;2023-12-07T11:01:38;34.07;;;17.37;;
40959;SDS011;27842;52.272;8.052;2023-12-07T11:04:05;40.70;;;20.43;;
40959;SDS011;27842;52.272;8.052;2023-12-07T11:06:32;34.37;;;17.70;;
40959;SDS011;27842;52.272;8.052;2023-12-07T11:09:01;35.75;;;20.02;;
40959;SDS011;27842;52.272;8.052;2023-12-07T11:11:43;41.10;;;21.13;;
40959;SDS011;27842;52.272;8.052;2023-12-07T11:14:20;41.27;;;20.53;;
40959;SDS011;27842;52.272;8.052;2023-12-07T11:16:47;36.97;;;19.00;;
40959;SDS011;27842;52.272;8.052;2023-12-07T11:22:09;35.50;;;17.20;;
40959;SDS011;27842;52.272;8.052;2023-12-07T11:24:37;34.20;;;17.67;;
40959;SDS011;27842;52.272;8.052;2023-12-07T11:27:03;34.33;;;17.33;;
40959;SDS011;27842;52.272;8.052;2023-12-07T11:29:28;37.80;;;18.00;;
40959;SDS011;27842;52.272;8.052;2023-12-07T11:31:55;35.10;;;17.60;;
40959;SDS011;27842;52.272;8.052;2023-12-07T11:34:40;34.23;;;16.53;;
40959;SDS011;27842;52.272;8.052;2023-12-07T11:37:14;41.23;;;20.00;;
40959;SDS011;27842;52.272;8.052;2023-12-07T11:39:45;39.57;;;17.43;;
40959;SDS011;27842;52.272;8.052;2023-12-07T11:42:11;41.33;;;18.83;;
40959;SDS011;27842;52.272;8.052;2023-12-07T11:44:47;39.23;;;19.60;;
40959;SDS011;27842;52.272;8.052;2023-12-07T11:47:23;37.80;;;18.03;;
40959;SDS011;27842;52.272;8.052;2023-12-07T11:49:49;42.13;;;20.33;;
40959;SDS011;27842;52.272;8.052;2023-12-07T11:52:15;52.57;;;26.50;;
40959;SDS011;27842;52.272;8.052;2023-12-07T11:54:51;46.57;;;24.27;;
40959;SDS011;27842;52.272;8.052;2023-12-07T11:57:18;47.33;;;22.73;;
40959;SDS011;27842;52.272;8.052;2023-12-07T11:59:44;42.93;;;21.50;;
40959;SDS011;27842;52.272;8.052;2023-12-07T12:02:13;45.33;;;21.90;;
40959;SDS011;27842;52.272;8.052;2023-12-07T12:04:39;41.83;;;20.98;;
40959;SDS011;27842;52.272;8.052;2023-12-07T12:07:05;39.27;;;20.17;;
40959;SDS011;27842;52.272;8.052;2023-12-07T12:09:31;43.00;;;20.00;;
40959;SDS011;27842;52.272;8.052;2023-12-07T12:11:58;39.40;;;18.67;;
40959;SDS011;27842;52.272;8.052;2023-12-07T12:14:26;41.00;;;20.07;;
40959;SDS011;27842;52.272;8.052;2023-12-07T12:16:53;41.50;;;21.17;;
40959;SDS011;27842;52.272;8.052;2023-12-07T12:19:19;39.80;;;19.50;;
40959;SDS011;27842;52.272;8.052;2023-12-07T12:21:46;45.13;;;21.57;;
40959;SDS011;27842;52.272;8.052;2023-12-07T12:24:12;43.73;;;20.87;;
40959;SDS011;27842;52.272;8.052;2023-12-07T12:26:41;46.93;;;21.70;;
40959;SDS011;27842;52.272;8.052;2023-12-07T12:29:07;44.33;;;19.97;;
40959;SDS011;27842;52.272;8.052;2023-12-07T12:31:36;44.10;;;21.27;;
40959;SDS011;27842;52.272;8.052;2023-12-07T12:36:37;43.63;;;20.83;;
40959;SDS011;27842;52.272;8.052;2023-12-07T12:39:02;44.20;;;20.33;;
40959;SDS011;27842;52.272;8.052;2023-12-07T12:41:32;42.43;;;20.60;;
40959;SDS011;27842;52.272;8.052;2023-12-07T12:43:57;49.20;;;20.93;;
40959;SDS011;27842;52.272;8.052;2023-12-07T12:46:24;45.93;;;21.30;;
40959;SDS011;27842;52.272;8.052;2023-12-07T12:48:57;42.20;;;21.40;;
40959;SDS011;27842;52.272;8.052;2023-12-07T12:51:28;45.17;;;20.83;;
40959;SDS011;27842;52.272;8.052;2023-12-07T12:53:58;48.70;;;23.47;;
40959;SDS011;27842;52.272;8.052;2023-12-07T12:56:24;50.37;;;22.10;;
40959;SDS011;27842;52.272;8.052;2023-12-07T12:58:53;47.60;;;22.73;;
40959;SDS011;27842;52.272;8.052;2023-12-07T13:03:47;46.43;;;20.90;;
40959;SDS011;27842;52.272;8.052;2023-12-07T13:06:13;47.13;;;22.40;;
40959;SDS011;27842;52.272;8.052;2023-12-07T13:08:43;48.40;;;22.93;;
40959;SDS011;27842;52.272;8.052;2023-12-07T13:11:19;46.23;;;22.63;;
40959;SDS011;27842;52.272;8.052;2023-12-07T13:13:45;48.43;;;21.90;;
40959;SDS011;27842;52.272;8.052;2023-12-07T13:18:41;48.13;;;22.83;;
40959;SDS011;27842;52.272;8.052;2023-12-07T13:21:06;44.10;;;21.70;;
40959;SDS011;27842;52.272;8.052;2023-12-07T13:23:32;46.57;;;22.27;;
40959;SDS011;27842;52.272;8.052;2023-12-07T13:25:57;47.87;;;22.13;;
40959;SDS011;27842;52.272;8.052;2023-12-07T13:28:23;43.93;;;20.93;;
40959;SDS011;27842;52.272;8.052;2023-12-07T13:30:49;45.97;;;21.20;;
40959;SDS011;27842;52.272;8.052;2023-12-07T13:33:19;42.57;;;20.13;;
40959;SDS011;27842;52.272;8.052;2023-12-07T13:35:46;44.20;;;20.90;;
40959;SDS011;27842;52.272;8.052;2023-12-07T13:38:12;43.87;;;20.63;;
40959;SDS011;27842;52.272;8.052;2023-12-07T13:40:37;39.87;;;20.37;;
40959;SDS011;27842;52.272;8.052;2023-12-07T13:43:03;42.73;;;21.47;;
40959;SDS011;27842;52.272;8.052;2023-12-07T13:45:29;40.53;;;19.93;;
40959;SDS011;27842;52.272;8.052;2023-12-07T13:47:54;45.00;;;21.83;;
40959;SDS011;27842;52.272;8.052;2023-12-07T13:50:20;48.60;;;21.33;;
40959;SDS011;27842;52.272;8.052;2023-12-07T13:52:47;47.27;;;21.93;;
40959;SDS011;27842;52.272;8.052;2023-12-07T13:55:13;41.97;;;21.03;;
40959;SDS011;27842;52.272;8.052;2023-12-07T13:57:39;45.47;;;22.00;;
40959;SDS011;27842;52.272;8.052;2023-12-07T14:00:04;46.93;;;21.47;;
40959;SDS011;27842;52.272;8.052;2023-12-07T14:02:30;42.23;;;21.83;;
40959;SDS011;27842;52.272;8.052;2023-12-07T14:04:56;44.73;;;22.30;;
40959;SDS011;27842;52.272;8.052;2023-12-07T14:07:22;47.33;;;21.73;;
40959;SDS011;27842;52.272;8.052;2023-12-07T14:09:48;44.50;;;21.73;;
40959;SDS011;27842;52.272;8.052;2023-12-07T14:12:15;43.50;;;21.17;;
40959;SDS011;27842;52.272;8.052;2023-12-07T14:14:45;44.43;;;22.20;;
40959;SDS011;27842;52.272;8.052;2023-12-07T14:17:12;44.80;;;21.90;;
40959;SDS011;27842;52.272;8.052;2023-12-07T14:19:38;42.67;;;21.57;;
40959;SDS011;27842;52.272;8.052;2023-12-07T14:22:04;42.37;;;21.87;;
40959;SDS011;27842;52.272;8.052;2023-12-07T14:24:52;49.85;;;21.17;;
40959;SDS011;27842;52.272;8.052;2023-12-07T14:27:18;43.13;;;20.87;;
40959;SDS011;27842;52.272;8.052;2023-12-07T14:29:44;41.17;;;20.50;;
40959;SDS011;27842;52.272;8.052;2023-12-07T14:32:10;44.83;;;21.13;;
40959;SDS011;27842;52.272;8.052;2023-12-07T14:34:36;45.80;;;22.37;;
40959;SDS011;27842;52.272;8.052;2023-12-07T14:37:03;43.93;;;20.87;;
40959;SDS011;27842;52.272;8.052;2023-12-07T14:39:30;46.97;;;21.57;;
40959;SDS011;27842;52.272;8.052;2023-12-07T14:41:56;47.17;;;20.67;;
40959;SDS011;27842;52.272;8.052;2023-12-07T14:44:22;48.90;;;21.73;;
40959;SDS011;27842;52.272;8.052;2023-12-07T14:46:48;49.77;;;22.63;;
40959;SDS011;27842;52.272;8.052;2023-12-07T14:49:15;46.27;;;21.43;;
40959;SDS011;27842;52.272;8.052;2023-12-07T14:51:42;45.57;;;20.77;;
40959;SDS011;27842;52.272;8.052;2023-12-07T14:54:08;46.03;;;19.90;;
40959;SDS011;27842;52.272;8.052;2023-12-07T14:56:37;43.72;;;21.05;;
40959;SDS011;27842;52.272;8.052;2023-12-07T14:59:03;48.53;;;21.87;;
40959;SDS011;27842;52.272;8.052;2023-12-07T15:01:29;45.03;;;21.43;;